sensor_id;sensor_type;location;lat;lon;timestamp;temperature;humidity
20777;DHT22;10548;47.504;8.248;2022-08-04T00:01:03;21.70;64.20
20777;DHT22;10548;47.504;8.248;2022-08-04T00:03:42;21.70;64.40
20777;DHT22;10548;47.504;8.248;2022-08-04T00:07:05;21.70;64.80
20777;DHT22;10548;47.504;8.248;2022-08-04T00:09:51;21.70;66.20
20777;DHT22;10548;47.504;8.248;2022-08-04T00:12:21;21.50;66.30
20777;DHT22;10548;47.504;8.248;2022-08-04T00:15:00;21.40;66.90
20777;DHT22;10548;47.504;8.248;2022-08-04T00:17:45;21.50;66.40
20777;DHT22;10548;47.504;8.248;2022-08-04T00:20:18;21.50;67.80
20777;DHT22;10548;47.504;8.248;2022-08-04T00:22:47;21.50;67.80
20777;DHT22;10548;47.504;8.248;2022-08-04T00:25:14;21.30;69.50
20777;DHT22;10548;47.504;8.248;2022-08-04T00:27:42;21.20;70.20
20777;DHT22;10548;47.504;8.248;2022-08-04T00:30:10;21.30;71.00
20777;DHT22;10548;47.504;8.248;2022-08-04T00:32:39;21.20;72.00
20777;DHT22;10548;47.504;8.248;2022-08-04T00:35:13;21.10;72.40
20777;DHT22;10548;47.504;8.248;2022-08-04T00:37:43;20.90;73.90
20777;DHT22;10548;47.504;8.248;2022-08-04T00:40:31;21.00;76.00
20777;DHT22;10548;47.504;8.248;2022-08-04T00:43:41;21.10;75.70
20777;DHT22;10548;47.504;8.248;2022-08-04T00:50:08;21.00;77.70
20777;DHT22;10548;47.504;8.248;2022-08-04T00:52:55;21.00;79.30
20777;DHT22;10548;47.504;8.248;2022-08-04T00:56:30;21.00;79.70
20777;DHT22;10548;47.504;8.248;2022-08-04T00:58:42;20.90;79.90
20777;DHT22;10548;47.504;8.248;2022-08-04T01:01:36;20.90;79.80
20777;DHT22;10548;47.504;8.248;2022-08-04T01:05:19;20.90;79.70
20777;DHT22;10548;47.504;8.248;2022-08-04T01:07:48;20.90;80.10
20777;DHT22;10548;47.504;8.248;2022-08-04T01:10:39;20.80;80.60
20777;DHT22;10548;47.504;8.248;2022-08-04T01:13:42;20.80;81.00
20777;DHT22;10548;47.504;8.248;2022-08-04T01:16:15;21.00;82.40
20777;DHT22;10548;47.504;8.248;2022-08-04T01:18:58;20.80;82.40
20777;DHT22;10548;47.504;8.248;2022-08-04T01:22:00;20.60;83.10
20777;DHT22;10548;47.504;8.248;2022-08-04T01:34:03;20.40;89.70
20777;DHT22;10548;47.504;8.248;2022-08-04T01:36:34;20.40;89.40
20777;DHT22;10548;47.504;8.248;2022-08-04T01:39:03;20.40;90.20
20777;DHT22;10548;47.504;8.248;2022-08-04T01:41:51;20.30;90.60
20777;DHT22;10548;47.504;8.248;2022-08-04T01:44:26;20.20;90.50
20777;DHT22;10548;47.504;8.248;2022-08-04T01:46:53;20.20;90.70
20777;DHT22;10548;47.504;8.248;2022-08-04T01:49:21;20.20;90.50
20777;DHT22;10548;47.504;8.248;2022-08-04T01:51:55;20.20;91.10
20777;DHT22;10548;47.504;8.248;2022-08-04T01:54:23;20.20;91.00
20777;DHT22;10548;47.504;8.248;2022-08-04T01:56:51;20.20;91.50
20777;DHT22;10548;47.504;8.248;2022-08-04T01:59:20;20.20;92.20
20777;DHT22;10548;47.504;8.248;2022-08-04T02:01:48;20.00;92.80
20777;DHT22;10548;47.504;8.248;2022-08-04T02:04:19;20.10;92.70
20777;DHT22;10548;47.504;8.248;2022-08-04T02:10:27;20.10;92.10
20777;DHT22;10548;47.504;8.248;2022-08-04T02:13:14;20.00;93.20
20777;DHT22;10548;47.504;8.248;2022-08-04T02:16:15;19.90;93.90
20777;DHT22;10548;47.504;8.248;2022-08-04T02:19:04;19.80;94.50
20777;DHT22;10548;47.504;8.248;2022-08-04T02:21:40;19.70;94.50
20777;DHT22;10548;47.504;8.248;2022-08-04T02:24:13;19.80;94.90
20777;DHT22;10548;47.504;8.248;2022-08-04T02:26:46;19.80;94.20
20777;DHT22;10548;47.504;8.248;2022-08-04T02:29:41;19.90;94.60
20777;DHT22;10548;47.504;8.248;2022-08-04T02:32:14;19.70;94.70
20777;DHT22;10548;47.504;8.248;2022-08-04T02:34:57;19.80;95.30
20777;DHT22;10548;47.504;8.248;2022-08-04T02:37:29;19.80;95.20
20777;DHT22;10548;47.504;8.248;2022-08-04T02:39:59;19.70;95.20
20777;DHT22;10548;47.504;8.248;2022-08-04T02:42:28;19.60;95.80
20777;DHT22;10548;47.504;8.248;2022-08-04T02:44:57;19.60;96.00
20777;DHT22;10548;47.504;8.248;2022-08-04T02:47:27;19.60;95.80
20777;DHT22;10548;47.504;8.248;2022-08-04T02:50:15;19.70;96.50
20777;DHT22;10548;47.504;8.248;2022-08-04T02:52:57;19.60;96.70
20777;DHT22;10548;47.504;8.248;2022-08-04T02:55:28;19.50;97.50
20777;DHT22;10548;47.504;8.248;2022-08-04T02:57:57;19.50;97.80
20777;DHT22;10548;47.504;8.248;2022-08-04T03:00:24;19.50;97.90
20777;DHT22;10548;47.504;8.248;2022-08-04T03:03:20;19.50;98.30
20777;DHT22;10548;47.504;8.248;2022-08-04T03:06:32;19.50;98.50
20777;DHT22;10548;47.504;8.248;2022-08-04T03:09:44;19.30;98.80
20777;DHT22;10548;47.504;8.248;2022-08-04T03:16:29;19.20;99.60
20777;DHT22;10548;47.504;8.248;2022-08-04T03:18:59;19.20;99.90
20777;DHT22;10548;47.504;8.248;2022-08-04T03:25:24;19.00;99.90
20777;DHT22;10548;47.504;8.248;2022-08-04T03:28:58;19.00;99.90
20777;DHT22;10548;47.504;8.248;2022-08-04T03:31:54;19.00;99.90
20777;DHT22;10548;47.504;8.248;2022-08-04T03:34:55;19.00;99.90
20777;DHT22;10548;47.504;8.248;2022-08-04T03:50:46;18.90;99.90
20777;DHT22;10548;47.504;8.248;2022-08-04T03:57:29;18.80;99.90
20777;DHT22;10548;47.504;8.248;2022-08-04T04:00:18;18.80;99.90
20777;DHT22;10548;47.504;8.248;2022-08-04T04:13:20;18.60;99.90
20777;DHT22;10548;47.504;8.248;2022-08-04T04:16:16;18.70;99.90
20777;DHT22;10548;47.504;8.248;2022-08-04T04:26:34;18.70;99.90
20777;DHT22;10548;47.504;8.248;2022-08-04T04:30:53;18.80;99.90
20777;DHT22;10548;47.504;8.248;2022-08-04T04:33:43;18.70;99.90
20777;DHT22;10548;47.504;8.248;2022-08-04T04:36:12;18.80;99.90
20777;DHT22;10548;47.504;8.248;2022-08-04T04:39:19;18.80;99.90
20777;DHT22;10548;47.504;8.248;2022-08-04T04:46:06;19.00;99.90
20777;DHT22;10548;47.504;8.248;2022-08-04T04:48:58;19.00;99.90
20777;DHT22;10548;47.504;8.248;2022-08-04T04:51:43;19.00;99.90
20777;DHT22;10548;47.504;8.248;2022-08-04T04:54:36;19.00;99.90
20777;DHT22;10548;47.504;8.248;2022-08-04T04:57:17;19.00;99.90
20777;DHT22;10548;47.504;8.248;2022-08-04T05:00:02;19.00;99.90
20777;DHT22;10548;47.504;8.248;2022-08-04T05:05:59;19.10;99.90
20777;DHT22;10548;47.504;8.248;2022-08-04T05:12:21;19.20;99.90
20777;DHT22;10548;47.504;8.248;2022-08-04T05:14:49;19.20;99.90
20777;DHT22;10548;47.504;8.248;2022-08-04T05:17:21;19.30;99.90
20777;DHT22;10548;47.504;8.248;2022-08-04T05:20:15;19.40;99.90
20777;DHT22;10548;47.504;8.248;2022-08-04T05:23:20;19.60;99.90
20777;DHT22;10548;47.504;8.248;2022-08-04T05:25:53;19.60;99.90
20777;DHT22;10548;47.504;8.248;2022-08-04T05:28:37;19.70;99.90
20777;DHT22;10548;47.504;8.248;2022-08-04T05:31:10;19.70;99.90
20777;DHT22;10548;47.504;8.248;2022-08-04T05:33:53;19.70;99.90
20777;DHT22;10548;47.504;8.248;2022-08-04T05:36:25;19.70;99.90
20777;DHT22;10548;47.504;8.248;2022-08-04T05:39:11;19.80;99.90
20777;DHT22;10548;47.504;8.248;2022-08-04T05:41:42;19.90;99.90
20777;DHT22;10548;47.504;8.248;2022-08-04T05:44:22;20.00;99.90
20777;DHT22;10548;47.504;8.248;2022-08-04T05:46:53;20.10;99.90
20777;DHT22;10548;47.504;8.248;2022-08-04T05:49:22;20.20;99.90
20777;DHT22;10548;47.504;8.248;2022-08-04T05:51:52;20.40;99.90
20777;DHT22;10548;47.504;8.248;2022-08-04T05:54:21;20.60;99.90
20777;DHT22;10548;47.504;8.248;2022-08-04T05:56:49;20.70;99.90
20777;DHT22;10548;47.504;8.248;2022-08-04T05:59:18;20.90;99.60
20777;DHT22;10548;47.504;8.248;2022-08-04T06:01:47;21.20;99.30
20777;DHT22;10548;47.504;8.248;2022-08-04T06:04:27;21.00;99.70
20777;DHT22;10548;47.504;8.248;2022-08-04T06:06:56;20.90;99.90
20777;DHT22;10548;47.504;8.248;2022-08-04T06:09:23;20.90;99.90
20777;DHT22;10548;47.504;8.248;2022-08-04T06:11:51;21.20;99.90
20777;DHT22;10548;47.504;8.248;2022-08-04T06:14:38;21.30;99.00
20777;DHT22;10548;47.504;8.248;2022-08-04T06:17:08;21.40;98.90
20777;DHT22;10548;47.504;8.248;2022-08-04T06:19:56;21.50;99.20
20777;DHT22;10548;47.504;8.248;2022-08-04T06:22:46;21.50;97.90
20777;DHT22;10548;47.504;8.248;2022-08-04T06:25:18;21.70;98.10
20777;DHT22;10548;47.504;8.248;2022-08-04T06:27:47;21.90;96.90
20777;DHT22;10548;47.504;8.248;2022-08-04T06:30:15;22.30;95.90
20777;DHT22;10548;47.504;8.248;2022-08-04T06:32:45;22.10;95.50
20777;DHT22;10548;47.504;8.248;2022-08-04T06:35:17;22.10;95.80
20777;DHT22;10548;47.504;8.248;2022-08-04T06:37:46;22.20;95.50
20777;DHT22;10548;47.504;8.248;2022-08-04T06:40:18;22.30;95.10
20777;DHT22;10548;47.504;8.248;2022-08-04T06:43:00;22.40;94.50
20777;DHT22;10548;47.504;8.248;2022-08-04T06:45:29;22.40;94.20
20777;DHT22;10548;47.504;8.248;2022-08-04T06:47:57;22.60;93.80
20777;DHT22;10548;47.504;8.248;2022-08-04T06:50:26;22.80;92.90
20777;DHT22;10548;47.504;8.248;2022-08-04T06:53:14;23.00;92.50
20777;DHT22;10548;47.504;8.248;2022-08-04T06:55:43;22.90;92.50
20777;DHT22;10548;47.504;8.248;2022-08-04T06:58:11;23.00;92.20
20777;DHT22;10548;47.504;8.248;2022-08-04T07:00:41;23.30;91.20
20777;DHT22;10548;47.504;8.248;2022-08-04T07:03:09;23.60;91.80
20777;DHT22;10548;47.504;8.248;2022-08-04T07:05:37;23.60;90.90
20777;DHT22;10548;47.504;8.248;2022-08-04T07:08:06;23.80;90.00
20777;DHT22;10548;47.504;8.248;2022-08-04T07:10:35;23.90;87.10
20777;DHT22;10548;47.504;8.248;2022-08-04T07:13:03;24.10;86.50
20777;DHT22;10548;47.504;8.248;2022-08-04T07:15:32;24.10;86.40
20777;DHT22;10548;47.504;8.248;2022-08-04T07:17:59;24.30;84.30
20777;DHT22;10548;47.504;8.248;2022-08-04T07:20:30;24.40;85.50
20777;DHT22;10548;47.504;8.248;2022-08-04T07:23:05;24.50;86.00
20777;DHT22;10548;47.504;8.248;2022-08-04T07:25:35;24.50;82.80
20777;DHT22;10548;47.504;8.248;2022-08-04T07:28:27;24.60;81.70
20777;DHT22;10548;47.504;8.248;2022-08-04T07:30:55;24.70;81.20
20777;DHT22;10548;47.504;8.248;2022-08-04T07:33:23;24.90;79.30
20777;DHT22;10548;47.504;8.248;2022-08-04T07:35:54;24.70;80.60
20777;DHT22;10548;47.504;8.248;2022-08-04T07:38:34;24.90;81.90
20777;DHT22;10548;47.504;8.248;2022-08-04T07:41:19;25.10;78.40
20777;DHT22;10548;47.504;8.248;2022-08-04T07:44:03;25.60;77.70
20777;DHT22;10548;47.504;8.248;2022-08-04T07:46:31;25.90;76.90
20777;DHT22;10548;47.504;8.248;2022-08-04T07:49:02;25.70;77.70
20777;DHT22;10548;47.504;8.248;2022-08-04T07:51:30;26.10;74.20
20777;DHT22;10548;47.504;8.248;2022-08-04T07:53:57;26.40;69.90
20777;DHT22;10548;47.504;8.248;2022-08-04T07:56:26;26.20;71.40
20777;DHT22;10548;47.504;8.248;2022-08-04T07:58:54;26.30;69.90
20777;DHT22;10548;47.504;8.248;2022-08-04T08:01:25;26.20;69.90
20777;DHT22;10548;47.504;8.248;2022-08-04T08:03:54;26.40;68.00
20777;DHT22;10548;47.504;8.248;2022-08-04T08:06:23;26.70;67.00
20777;DHT22;10548;47.504;8.248;2022-08-04T08:09:00;27.00;66.90
20777;DHT22;10548;47.504;8.248;2022-08-04T08:11:46;26.90;64.50
20777;DHT22;10548;47.504;8.248;2022-08-04T08:14:34;27.10;64.00
20777;DHT22;10548;47.504;8.248;2022-08-04T08:17:03;27.10;62.80
20777;DHT22;10548;47.504;8.248;2022-08-04T08:19:31;27.30;62.80
20777;DHT22;10548;47.504;8.248;2022-08-04T08:21:59;27.90;59.90
20777;DHT22;10548;47.504;8.248;2022-08-04T08:24:29;28.00;57.50
20777;DHT22;10548;47.504;8.248;2022-08-04T08:26:57;28.10;57.30
20777;DHT22;10548;47.504;8.248;2022-08-04T08:29:25;28.20;56.80
20777;DHT22;10548;47.504;8.248;2022-08-04T08:31:53;27.90;56.80
20777;DHT22;10548;47.504;8.248;2022-08-04T08:34:25;27.80;55.80
20777;DHT22;10548;47.504;8.248;2022-08-04T08:37:03;28.10;56.40
20777;DHT22;10548;47.504;8.248;2022-08-04T08:39:41;28.30;55.80
20777;DHT22;10548;47.504;8.248;2022-08-04T08:42:43;28.90;54.90
20777;DHT22;10548;47.504;8.248;2022-08-04T08:53:01;29.40;52.70
20777;DHT22;10548;47.504;8.248;2022-08-04T08:56:10;29.60;51.50
20777;DHT22;10548;47.504;8.248;2022-08-04T09:02:52;29.00;52.40
20777;DHT22;10548;47.504;8.248;2022-08-04T09:05:47;28.90;52.50
20777;DHT22;10548;47.504;8.248;2022-08-04T09:09:13;29.60;50.60
20777;DHT22;10548;47.504;8.248;2022-08-04T09:12:40;30.40;50.00
20777;DHT22;10548;47.504;8.248;2022-08-04T09:15:51;30.00;51.10
20777;DHT22;10548;47.504;8.248;2022-08-04T09:17:58;29.60;50.30
20777;DHT22;10548;47.504;8.248;2022-08-04T09:20:48;29.60;48.70
20777;DHT22;10548;47.504;8.248;2022-08-04T09:23:23;30.40;48.90
20777;DHT22;10548;47.504;8.248;2022-08-04T09:26:28;30.90;47.60
20777;DHT22;10548;47.504;8.248;2022-08-04T09:29:18;30.90;46.60
20777;DHT22;10548;47.504;8.248;2022-08-04T09:35:36;30.50;47.30
20777;DHT22;10548;47.504;8.248;2022-08-04T09:38:26;31.20;47.60
20777;DHT22;10548;47.504;8.248;2022-08-04T09:40:59;30.90;44.60
20777;DHT22;10548;47.504;8.248;2022-08-04T09:47:43;31.30;43.40
20777;DHT22;10548;47.504;8.248;2022-08-04T09:50:41;31.60;44.20
20777;DHT22;10548;47.504;8.248;2022-08-04T09:53:49;31.70;43.00
20777;DHT22;10548;47.504;8.248;2022-08-04T09:56:28;32.00;41.60
20777;DHT22;10548;47.504;8.248;2022-08-04T10:02:05;33.20;39.70
20777;DHT22;10548;47.504;8.248;2022-08-04T10:04:35;32.50;38.70
20777;DHT22;10548;47.504;8.248;2022-08-04T10:13:31;32.20;39.60
20777;DHT22;10548;47.504;8.248;2022-08-04T10:19:34;33.40;35.80
20777;DHT22;10548;47.504;8.248;2022-08-04T10:26:26;33.30;35.10
20777;DHT22;10548;47.504;8.248;2022-08-04T10:28:52;34.10;35.60
20777;DHT22;10548;47.504;8.248;2022-08-04T10:31:29;34.20;33.80
20777;DHT22;10548;47.504;8.248;2022-08-04T10:34:13;33.70;35.60
20777;DHT22;10548;47.504;8.248;2022-08-04T10:37:05;33.30;35.80
20777;DHT22;10548;47.504;8.248;2022-08-04T10:43:46;33.70;33.10
20777;DHT22;10548;47.504;8.248;2022-08-04T10:46:20;34.10;34.20
20777;DHT22;10548;47.504;8.248;2022-08-04T10:49:13;35.30;31.60
20777;DHT22;10548;47.504;8.248;2022-08-04T10:52:06;35.90;30.30
20777;DHT22;10548;47.504;8.248;2022-08-04T10:57:51;35.00;32.50
20777;DHT22;10548;47.504;8.248;2022-08-04T11:00:24;36.60;29.60
20777;DHT22;10548;47.504;8.248;2022-08-04T11:03:16;36.60;29.00
20777;DHT22;10548;47.504;8.248;2022-08-04T11:06:02;34.90;29.50
20777;DHT22;10548;47.504;8.248;2022-08-04T11:14:46;34.30;43.80
20777;DHT22;10548;47.504;8.248;2022-08-04T11:17:23;34.90;40.60
20777;DHT22;10548;47.504;8.248;2022-08-04T11:20:02;34.70;41.70
20777;DHT22;10548;47.504;8.248;2022-08-04T11:23:13;34.90;41.10
20777;DHT22;10548;47.504;8.248;2022-08-04T11:26:11;35.30;40.80
20777;DHT22;10548;47.504;8.248;2022-08-04T11:29:10;37.10;37.70
20777;DHT22;10548;47.504;8.248;2022-08-04T11:31:41;36.30;36.10
20777;DHT22;10548;47.504;8.248;2022-08-04T11:34:24;36.10;37.40
20777;DHT22;10548;47.504;8.248;2022-08-04T11:47:34;35.70;41.40
20777;DHT22;10548;47.504;8.248;2022-08-04T11:50:59;36.50;41.50
20777;DHT22;10548;47.504;8.248;2022-08-04T11:53:34;37.30;38.90
20777;DHT22;10548;47.504;8.248;2022-08-04T11:56:06;38.40;37.40
20777;DHT22;10548;47.504;8.248;2022-08-04T11:58:38;39.80;35.80
20777;DHT22;10548;47.504;8.248;2022-08-04T12:01:46;38.60;35.90
20777;DHT22;10548;47.504;8.248;2022-08-04T12:07:42;37.80;35.90
20777;DHT22;10548;47.504;8.248;2022-08-04T12:13:38;38.80;33.60
20777;DHT22;10548;47.504;8.248;2022-08-04T12:16:27;38.10;34.40
20777;DHT22;10548;47.504;8.248;2022-08-04T12:19:07;38.90;33.80
20777;DHT22;10548;47.504;8.248;2022-08-04T12:21:51;38.20;34.40
20777;DHT22;10548;47.504;8.248;2022-08-04T12:24:30;37.00;36.80
20777;DHT22;10548;47.504;8.248;2022-08-04T12:50:24;40.30;31.10
20777;DHT22;10548;47.504;8.248;2022-08-04T12:52:55;40.90;31.20
20777;DHT22;10548;47.504;8.248;2022-08-04T12:55:33;40.30;31.60
20777;DHT22;10548;47.504;8.248;2022-08-04T12:58:03;39.20;33.10
20777;DHT22;10548;47.504;8.248;2022-08-04T13:00:37;38.00;33.50
20777;DHT22;10548;47.504;8.248;2022-08-04T13:03:10;39.50;32.00
20777;DHT22;10548;47.504;8.248;2022-08-04T13:05:39;40.20;29.90
20777;DHT22;10548;47.504;8.248;2022-08-04T13:08:11;38.30;31.40
20777;DHT22;10548;47.504;8.248;2022-08-04T13:10:44;37.90;35.80
20777;DHT22;10548;47.504;8.248;2022-08-04T13:13:24;37.80;37.40
20777;DHT22;10548;47.504;8.248;2022-08-04T13:16:01;37.50;36.20
20777;DHT22;10548;47.504;8.248;2022-08-04T13:18:32;38.50;34.70
20777;DHT22;10548;47.504;8.248;2022-08-04T13:21:18;39.80;32.90
20777;DHT22;10548;47.504;8.248;2022-08-04T13:24:16;40.50;29.60
